Time;durP1;ratioP1;P1;durP2;ratioP2;P2;SDS_P1;SDS_P2;PMS_P1;PMS_P2;Temp;Humidity;BMP_temperature;BMP_pressure;BME280_temperature;BME280_humidity;BME280_pressure;Samples;Min_cycle;Max_cycle;Signal;HPM_P1;HPM_P2
2024/01/14 00:00:37;;;;;;;62.38;19.42;;;;;;;-5.63;71.22;93780.00;5082664;28;20024;-73
2024/01/14 00:03:02;;;;;;;57.42;20.00;;;;;;;-5.59;70.91;93785.56;5082820;28;20218;-73
2024/01/14 00:05:28;;;;;;;56.63;18.63;;;;;;;-5.54;70.90;93783.91;5082856;28;20032;-73
2024/01/14 00:07:54;;;;;;;57.65;22.30;;;;;;;-5.52;70.75;93786.28;5082799;28;20039;-73
2024/01/14 00:10:19;;;;;;;51.63;19.20;;;;;;;-5.54;71.00;93796.09;5082439;28;20014;-73
2024/01/14 00:12:45;;;;;;;51.92;20.45;;;;;;;-5.53;70.59;93790.69;5082690;28;20028;-73
2024/01/14 00:15:11;;;;;;;50.78;17.92;;;;;;;-5.56;70.72;93778.13;5082632;28;20028;-73
2024/01/14 00:17:36;;;;;;;54.20;18.67;;;;;;;-5.54;70.90;93780.53;5082563;28;20203;-73
2024/01/14 00:20:04;;;;;;;48.15;16.15;;;;;;;-5.50;70.96;93774.66;5082611;28;20029;-73
2024/01/14 00:22:29;;;;;;;31.95;13.13;;;;;;;-5.51;71.08;93778.28;5082513;28;20272;-73
2024/01/14 00:24:55;;;;;;;46.03;16.10;;;;;;;-5.49;70.93;93784.06;5082327;28;20024;-73
2024/01/14 00:27:20;;;;;;;50.88;20.05;;;;;;;-5.47;70.83;93768.28;5082599;28;20074;-73
2024/01/14 00:29:46;;;;;;;45.08;17.48;;;;;;;-5.49;70.70;93771.09;5086516;28;20029;-73
2024/01/14 00:32:12;;;;;;;54.40;17.65;;;;;;;-5.50;70.93;93771.28;5086551;28;20020;-73
2024/01/14 00:34:41;;;;;;;51.90;18.90;;;;;;;-5.52;70.61;93773.31;5086428;28;20031;-73
2024/01/14 00:37:06;;;;;;;45.42;17.27;;;;;;;-5.51;70.65;93772.31;5086410;28;20029;-73
2024/01/14 00:39:36;;;;;;;43.35;16.33;;;;;;;-5.50;70.83;93777.28;5086233;28;20041;-73
2024/01/14 00:42:02;;;;;;;39.70;15.27;;;;;;;-5.49;70.71;93775.50;5086140;28;20094;-73
2024/01/14 00:44:27;;;;;;;37.67;13.90;;;;;;;-5.51;70.92;93757.50;5086229;28;20027;-73
2024/01/14 00:46:52;;;;;;;36.55;13.52;;;;;;;-5.48;70.79;93764.84;5086076;28;20084;-73
2024/01/14 00:49:18;;;;;;;39.25;14.23;;;;;;;-5.50;70.76;93764.28;5086322;28;20039;-73
2024/01/14 00:51:43;;;;;;;36.78;14.30;;;;;;;-5.50;70.80;93774.66;5086364;28;20028;-73
2024/01/14 00:54:09;;;;;;;38.28;15.07;;;;;;;-5.49;70.82;93762.50;5085949;28;20225;-73
2024/01/14 00:56:34;;;;;;;45.28;15.60;;;;;;;-5.46;70.60;93769.84;5085876;28;20318;-73
2024/01/14 00:58:59;;;;;;;37.78;14.50;;;;;;;-5.49;70.76;93762.50;5085908;28;20219;-73
2024/01/14 01:01:25;;;;;;;41.53;14.57;;;;;;;-5.61;70.64;93761.63;5086009;28;20021;-73
2024/01/14 01:03:50;;;;;;;37.15;14.60;;;;;;;-5.58;70.61;93756.78;5085961;28;20298;-73
2024/01/14 01:06:16;;;;;;;28.88;12.35;;;;;;;-5.57;70.84;93755.00;5086044;28;20211;-73
2024/01/14 01:08:41;;;;;;;39.83;14.30;;;;;;;-5.57;70.61;93750.59;5085827;28;20016;-73
2024/01/14 01:11:06;;;;;;;37.47;13.75;;;;;;;-5.59;71.02;93755.19;5085563;28;20032;-73
2024/01/14 01:13:32;;;;;;;38.75;14.48;;;;;;;-5.57;70.69;93737.59;5085626;28;20096;-73
2024/01/14 01:15:57;;;;;;;26.92;12.27;;;;;;;-5.57;70.69;93748.00;5085544;28;20404;-73
2024/01/14 01:18:23;;;;;;;33.00;12.95;;;;;;;-5.68;70.51;93739.13;5085589;28;20036;-73
2024/01/14 01:20:51;;;;;;;37.35;14.18;;;;;;;-5.68;70.82;93740.91;5085534;28;20024;-73
2024/01/14 01:23:16;;;;;;;39.83;15.55;;;;;;;-5.68;71.04;93735.72;5085625;28;20033;-73
2024/01/14 01:25:42;;;;;;;39.67;13.63;;;;;;;-5.67;70.85;93732.91;5085466;28;20334;-73
2024/01/14 01:28:09;;;;;;;35.20;13.65;;;;;;;-5.66;70.94;93728.50;5085460;28;20039;-73
2024/01/14 01:30:35;;;;;;;37.38;13.88;;;;;;;-5.73;71.22;93722.59;5085320;28;20035;-73
2024/01/14 01:33:00;;;;;;;34.47;13.10;;;;;;;-5.67;70.96;93722.53;5085388;28;20280;-73
2024/01/14 01:35:26;;;;;;;38.67;13.73;;;;;;;-5.69;71.07;93715.97;5085273;28;20036;-73
2024/01/14 01:37:51;;;;;;;35.65;12.57;;;;;;;-5.73;71.02;93712.22;5085194;28;20024;-73
2024/01/14 01:40:17;;;;;;;27.25;12.55;;;;;;;-5.72;70.66;93718.97;5084328;28;20029;-73
2024/01/14 01:42:42;;;;;;;30.13;11.82;;;;;;;-5.78;70.80;93709.44;5085401;28;20032;-73
2024/01/14 01:45:09;;;;;;;34.80;13.70;;;;;;;-5.81;71.09;93728.06;5085210;28;20017;-73
2024/01/14 01:47:35;;;;;;;29.00;12.65;;;;;;;-5.81;71.21;93713.28;5085051;28;20024;-73
2024/01/14 01:50:01;;;;;;;36.85;13.93;;;;;;;-5.80;71.05;93701.91;5084979;28;20032;-73
2024/01/14 01:52:27;;;;;;;42.60;13.23;;;;;;;-5.83;71.31;93711.91;5085023;28;20024;-73
2024/01/14 01:54:54;;;;;;;28.02;12.35;;;;;;;-5.85;71.15;93709.53;5084692;28;20047;-73
2024/01/14 01:57:22;;;;;;;32.28;12.85;;;;;;;-5.86;71.39;93698.34;5084991;28;20028;-73
2024/01/14 01:59:48;;;;;;;31.35;11.63;;;;;;;-5.81;71.14;93707.31;5084811;28;20083;-73
2024/01/14 02:02:14;;;;;;;29.50;12.60;;;;;;;-5.80;71.58;93696.72;5084888;28;20028;-73
2024/01/14 02:04:39;;;;;;;33.75;12.30;;;;;;;-5.81;71.40;93699.50;5084725;28;20043;-73
2024/01/14 02:07:06;;;;;;;29.90;10.82;;;;;;;-5.86;71.31;93695.75;5084745;28;20020;-73
2024/01/14 02:09:32;;;;;;;31.27;11.93;;;;;;;-5.86;71.22;93693.16;5084495;28;20097;-73
2024/01/14 02:11:59;;;;;;;28.63;12.00;;;;;;;-5.88;71.86;93687.41;5084440;28;20054;-73
2024/01/14 02:14:25;;;;;;;25.58;11.25;;;;;;;-5.88;71.68;93690.00;5084756;28;20272;-73
2024/01/14 02:16:53;;;;;;;31.35;12.32;;;;;;;-5.87;71.58;93681.19;5084459;28;20029;-73
2024/01/14 02:19:18;;;;;;;29.30;10.85;;;;;;;-5.90;71.42;93686.81;5084528;28;20203;-73
2024/01/14 02:21:52;;;;;;;24.42;10.48;;;;;;;-5.89;71.36;93703.97;5084560;28;20024;-73
2024/01/14 02:24:29;;;;;;;25.70;10.98;;;;;;;-5.93;71.60;93689.81;5084506;28;20110;-73
2024/01/14 02:26:54;;;;;;;31.83;11.15;;;;;;;-5.98;71.62;93689.72;5084191;28;20062;-73
2024/01/14 02:29:20;;;;;;;25.48;10.05;;;;;;;-5.91;71.34;93693.00;5084364;28;20012;-73
2024/01/14 02:31:46;;;;;;;31.25;10.57;;;;;;;-5.90;70.76;93680.84;5084360;28;20223;-73
2024/01/14 02:34:12;;;;;;;24.13;9.88;;;;;;;-5.92;70.80;93681.06;5084322;28;20024;-73
2024/01/14 02:36:38;;;;;;;21.88;9.95;;;;;;;-5.92;70.72;93681.06;5083819;28;20020;-74
2024/01/14 02:39:04;;;;;;;23.17;9.60;;;;;;;-5.92;70.79;93688.84;5084039;28;20066;-73
2024/01/14 02:41:30;;;;;;;23.52;9.95;;;;;;;-5.90;70.99;93686.03;5084070;28;20043;-73
2024/01/14 02:43:56;;;;;;;30.08;9.48;;;;;;;-5.97;70.63;93677.53;5083911;28;20025;-73
2024/01/14 02:46:21;;;;;;;23.27;9.80;;;;;;;-6.05;71.07;93683.78;5083875;28;20311;-73
2024/01/14 02:48:47;;;;;;;24.35;9.88;;;;;;;-6.02;70.91;93683.38;5083886;28;20095;-73
2024/01/14 02:51:12;;;;;;;27.42;9.60;;;;;;;-5.99;70.58;93669.97;5082972;28;20067;-74
2024/01/14 02:53:38;;;;;;;20.50;9.23;;;;;;;-6.09;70.82;93675.63;5083619;28;20024;-73
2024/01/14 02:56:04;;;;;;;20.02;8.23;;;;;;;-6.09;70.89;93670.44;5083725;28;20020;-73
2024/01/14 02:58:29;;;;;;;20.30;9.00;;;;;;;-6.11;70.73;93669.09;5083726;28;20024;-73
2024/01/14 03:00:55;;;;;;;17.20;7.32;;;;;;;-6.10;70.98;93668.88;5083767;28;20026;-73
2024/01/14 03:03:21;;;;;;;17.35;7.38;;;;;;;-6.18;71.04;93663.19;5083571;28;20020;-73
2024/01/14 03:05:47;;;;;;;20.08;7.15;;;;;;;-6.15;70.88;93662.75;5083453;28;20104;-73
2024/01/14 03:08:13;;;;;;;19.55;7.55;;;;;;;-6.17;70.65;93675.91;5083549;28;20269;-73
2024/01/14 03:10:38;;;;;;;13.05;6.65;;;;;;;-6.23;70.63;93674.19;5083312;28;20086;-73
2024/01/14 03:13:04;;;;;;;17.65;7.68;;;;;;;-6.24;71.05;93675.19;5083436;28;20023;-73
2024/01/14 03:15:30;;;;;;;16.55;7.28;;;;;;;-6.21;70.88;93666.19;5083328;28;20215;-73
2024/01/14 03:17:55;;;;;;;15.77;6.45;;;;;;;-6.22;70.82;93675.00;5083426;28;20028;-73
2024/01/14 03:20:22;;;;;;;17.02;6.30;;;;;;;-6.32;70.98;93673.66;5082068;28;20035;-73
2024/01/14 03:22:48;;;;;;;19.05;7.70;;;;;;;-6.30;70.87;93656.09;5083083;28;20016;-73
2024/01/14 03:25:13;;;;;;;20.77;7.47;;;;;;;-6.29;70.99;93655.09;5083351;28;20058;-73
2024/01/14 03:27:39;;;;;;;20.30;7.70;;;;;;;-6.33;71.08;93656.53;5083206;28;20025;-73
2024/01/14 03:30:05;;;;;;;19.27;7.35;;;;;;;-6.33;71.34;93655.72;5083217;28;20036;-73
2024/01/14 03:32:30;;;;;;;27.13;8.98;;;;;;;-6.33;71.08;93656.53;5083140;28;20241;-72
2024/01/14 03:34:56;;;;;;;26.10;9.05;;;;;;;-6.28;71.12;93658.47;5082836;28;20039;-73
2024/01/14 03:37:21;;;;;;;25.02;9.73;;;;;;;-6.26;71.22;93653.88;5082920;28;20035;-73
2024/01/14 03:39:46;;;;;;;26.33;9.65;;;;;;;-6.22;71.28;93662.03;5083011;28;20016;-73
2024/01/14 03:42:12;;;;;;;26.98;7.72;;;;;;;-6.26;71.32;93657.25;5081837;28;20095;-73
2024/01/14 03:44:37;;;;;;;23.42;7.75;;;;;;;-6.28;71.36;93663.66;5083029;28;20359;-73
2024/01/14 03:47:03;;;;;;;22.05;8.35;;;;;;;-6.27;71.07;93670.41;5083019;28;20016;-73
2024/01/14 03:49:31;;;;;;;20.30;8.18;;;;;;;-6.27;70.98;93663.47;5082876;28;20043;-73
2024/01/14 03:51:56;;;;;;;27.83;10.15;;;;;;;-6.24;70.87;93664.03;5082911;28;20020;-73
2024/01/14 03:54:21;;;;;;;27.77;11.32;;;;;;;-6.29;71.11;93667.25;5082821;28;20028;-73
2024/01/14 03:56:47;;;;;;;28.13;10.43;;;;;;;-6.29;71.41;93670.66;5082726;28;20039;-73
2024/01/14 03:59:12;;;;;;;24.48;10.50;;;;;;;-6.26;71.72;93677.22;5083047;28;20024;-73
2024/01/14 04:01:38;;;;;;;28.83;10.55;;;;;;;-6.30;71.87;93687.22;5082642;28;20055;-73
2024/01/14 04:04:04;;;;;;;28.52;10.70;;;;;;;-6.30;71.74;93697.59;5082708;28;20091;-73
2024/01/14 04:06:29;;;;;;;26.48;9.70;;;;;;;-6.27;71.67;93697.19;5082695;28;20028;-73
2024/01/14 04:08:55;;;;;;;25.08;9.80;;;;;;;-6.27;71.54;93699.78;5082609;28;20020;-73
2024/01/14 04:11:20;;;;;;;30.05;11.38;;;;;;;-6.28;71.55;93680.00;5082633;28;20323;-73
2024/01/14 04:13:45;;;;;;;22.40;9.00;;;;;;;-6.38;71.79;93687.47;5082932;28;20024;-73
2024/01/14 04:16:11;;;;;;;32.47;10.48;;;;;;;-6.44;72.06;93680.56;5082574;28;20226;-73
2024/01/14 04:18:37;;;;;;;28.63;10.82;;;;;;;-6.39;72.07;93677.31;5082439;28;20063;-73
2024/01/14 04:21:03;;;;;;;24.23;10.45;;;;;;;-6.37;71.77;93670.13;5082686;28;20056;-73
2024/01/14 04:23:28;;;;;;;31.83;10.85;;;;;;;-6.36;72.22;93669.91;5082528;28;20384;-73
2024/01/14 04:25:54;;;;;;;32.15;10.25;;;;;;;-6.33;71.66;93671.28;5082387;28;20092;-73
2024/01/14 04:28:20;;;;;;;27.33;10.45;;;;;;;-6.34;71.22;93667.13;5082531;28;20052;-73
2024/01/14 04:30:46;;;;;;;27.83;10.10;;;;;;;-6.37;71.18;93665.75;5082698;28;20306;-73
2024/01/14 04:33:11;;;;;;;35.33;12.45;;;;;;;-6.40;71.33;93660.19;5082350;28;20032;-73
2024/01/14 04:35:37;;;;;;;33.35;12.32;;;;;;;-6.44;71.31;93664.22;5082357;28;20035;-73
2024/01/14 04:38:02;;;;;;;37.17;12.65;;;;;;;-6.41;71.43;93648.22;5082537;28;20029;-73
2024/01/14 04:40:28;;;;;;;40.42;11.77;;;;;;;-6.42;71.29;93659.59;5082372;28;20047;-74
2024/01/14 04:42:53;;;;;;;34.50;11.55;;;;;;;-6.43;70.91;93660.59;5082441;28;20029;-73
2024/01/14 04:45:18;;;;;;;36.05;12.90;;;;;;;-6.46;70.80;93654.03;5082509;28;20031;-74
2024/01/14 04:47:44;;;;;;;41.45;12.65;;;;;;;-6.47;70.96;93658.44;5082360;28;20227;-73
2024/01/14 04:50:10;;;;;;;43.60;13.75;;;;;;;-6.50;71.00;93665.84;5082444;28;20021;-73
2024/01/14 04:52:35;;;;;;;25.10;9.07;;;;;;;-6.48;71.15;93669.03;5082336;28;20028;-73
2024/01/14 04:55:01;;;;;;;26.92;9.98;;;;;;;-6.50;71.30;93665.84;5082328;28;20222;-73
2024/01/14 04:57:26;;;;;;;40.42;11.50;;;;;;;-6.53;71.35;93658.50;5082077;28;20035;-73
2024/01/14 04:59:52;;;;;;;27.30;9.50;;;;;;;-6.50;71.22;93665.84;5082162;28;20024;-74
2024/01/14 05:02:17;;;;;;;32.55;10.02;;;;;;;-6.50;71.35;93663.25;5082227;28;20311;-73
2024/01/14 05:04:42;;;;;;;31.45;10.60;;;;;;;-6.49;71.33;93673.41;5082377;28;20087;-74
2024/01/14 05:07:08;;;;;;;34.13;11.48;;;;;;;-6.52;71.22;93680.81;5082144;28;20085;-73
2024/01/14 05:09:33;;;;;;;41.90;11.48;;;;;;;-6.61;71.46;93679.47;5082154;28;20094;-73
2024/01/14 05:11:58;;;;;;;36.38;11.55;;;;;;;-6.57;71.37;93684.06;5081974;28;20116;-73
2024/01/14 05:14:24;;;;;;;34.35;11.27;;;;;;;-6.64;71.54;93669.56;5083559;28;20055;-73
2024/01/14 05:16:49;;;;;;;33.47;10.80;;;;;;;-6.60;71.69;93671.50;5085564;28;20039;-73
2024/01/14 05:19:15;;;;;;;26.52;9.88;;;;;;;-6.59;71.69;93672.28;5085790;28;20028;-73
2024/01/14 05:21:40;;;;;;;28.67;10.85;;;;;;;-6.61;71.55;93656.16;5085559;28;20034;-73
2024/01/14 05:24:05;;;;;;;32.53;10.90;;;;;;;-6.56;71.72;93669.28;5101344;28;20038;-73
2024/01/14 05:26:31;;;;;;;26.95;11.27;;;;;;;-6.58;71.69;93651.34;5085536;28;20251;-73
2024/01/14 05:28:59;;;;;;;26.48;10.23;;;;;;;-6.58;72.03;93658.34;5085270;28;20074;-73
2024/01/14 05:31:26;;;;;;;26.63;9.68;;;;;;;-6.57;71.61;93665.09;5085985;28;20030;-73
2024/01/14 05:33:52;;;;;;;25.48;9.85;;;;;;;-6.55;71.58;93650.94;5085687;28;20083;-73
2024/01/14 05:36:18;;;;;;;23.13;9.57;;;;;;;-6.51;71.42;93653.91;5085508;28;20043;-73
2024/01/14 05:38:43;;;;;;;24.30;10.80;;;;;;;-6.60;71.59;93660.34;5086880;28;20028;-73
2024/01/14 05:41:15;;;;;;;25.05;8.48;;;;;;;-6.59;71.41;93659.31;5085634;28;20048;-73
2024/01/14 05:43:41;;;;;;;22.35;8.32;;;;;;;-6.57;71.71;93662.50;5085414;28;20012;-74
2024/01/14 05:46:06;;;;;;;19.73;8.93;;;;;;;-6.57;71.79;93657.31;5085326;28;20549;-73
2024/01/14 05:48:33;;;;;;;21.83;9.13;;;;;;;-6.55;71.73;93673.47;5085371;28;20016;-73
2024/01/14 05:50:59;;;;;;;20.05;8.60;;;;;;;-6.52;71.78;93654.91;5085515;28;20121;-74
2024/01/14 05:53:24;;;;;;;17.17;8.57;;;;;;;-6.59;72.14;93651.53;5085088;28;20024;-73
2024/01/14 05:55:49;;;;;;;21.63;9.50;;;;;;;-6.54;72.00;93656.91;5084902;28;20130;-73
2024/01/14 05:58:15;;;;;;;19.85;9.30;;;;;;;-6.49;71.69;93655.28;5083937;28;20313;-73
2024/01/14 06:00:40;;;;;;;21.27;9.52;;;;;;;-6.45;71.93;93668.59;5084907;28;20032;-73
2024/01/14 06:03:07;;;;;;;21.88;9.52;;;;;;;-6.43;71.64;93661.41;5083665;28;20316;-73
2024/01/14 06:05:32;;;;;;;34.53;10.68;;;;;;;-6.48;71.73;93656.84;5084839;28;20093;-73
2024/01/14 06:07:58;;;;;;;33.67;11.68;;;;;;;-6.45;72.02;93660.84;5084826;28;20024;-74
2024/01/14 06:10:23;;;;;;;26.10;10.65;;;;;;;-6.35;72.01;93662.91;5084531;28;20024;-73
2024/01/14 06:12:48;;;;;;;32.83;11.25;;;;;;;-6.33;71.93;93653.94;5084689;28;20204;-73
2024/01/14 06:15:14;;;;;;;28.10;10.73;;;;;;;-6.35;71.96;93648.16;5084496;28;20083;-73
2024/01/14 06:17:39;;;;;;;36.88;13.50;;;;;;;-6.31;72.09;93635.53;5084495;28;20043;-73
2024/01/14 06:20:07;;;;;;;33.17;12.75;;;;;;;-6.22;71.80;93657.63;5084558;28;20016;-73
2024/01/14 06:22:32;;;;;;;32.15;12.77;;;;;;;-6.16;71.82;93645.59;5084303;28;20044;-73
2024/01/14 06:24:57;;;;;;;43.38;14.90;;;;;;;-6.12;71.91;93642.34;5084352;28;20020;-74
2024/01/14 06:27:23;;;;;;;34.08;13.18;;;;;;;-6.08;71.79;93648.69;5084251;28;20246;-74
2024/01/14 06:29:48;;;;;;;39.28;14.93;;;;;;;-6.09;71.68;93644.50;5083940;28;20028;-74
2024/01/14 06:32:13;;;;;;;40.70;12.32;;;;;;;-6.02;71.87;93647.03;5084533;28;20210;-74
2024/01/14 06:34:40;;;;;;;38.55;13.88;;;;;;;-5.94;71.91;93653.69;5084207;28;20024;-76
2024/01/14 06:37:06;;;;;;;39.15;13.57;;;;;;;-5.89;71.78;93652.06;5084038;28;20028;-74
2024/01/14 06:39:31;;;;;;;36.25;13.23;;;;;;;-5.84;71.45;93654.03;5084134;28;20249;-74
2024/01/14 06:41:57;;;;;;;38.53;14.77;;;;;;;-5.81;71.53;93652.78;5084180;28;20071;-74
2024/01/14 06:44:22;;;;;;;35.03;12.98;;;;;;;-5.71;71.41;93643.47;5083788;28;20020;-74
2024/01/14 06:46:48;;;;;;;35.22;14.00;;;;;;;-5.63;71.31;93650.19;5084057;28;20091;-74
2024/01/14 06:49:13;;;;;;;38.13;14.85;;;;;;;-5.57;71.60;93644.13;5084067;28;20025;-74
2024/01/14 06:51:45;;;;;;;40.40;14.80;;;;;;;-5.46;71.33;93630.38;5084118;28;20070;-73
2024/01/14 06:54:11;;;;;;;34.00;14.48;;;;;;;-5.38;71.28;93641.47;5083847;28;20048;-74
2024/01/14 06:56:47;;;;;;;50.03;17.75;;;;;;;-5.33;71.18;93628.59;5083568;28;20211;-74
2024/01/14 06:59:14;;;;;;;43.08;15.70;;;;;;;-5.32;70.84;93632.81;5084009;28;20260;-74
2024/01/14 07:01:40;;;;;;;41.22;15.40;;;;;;;-5.25;70.55;93623.13;5083665;28;20020;-74
2024/01/14 07:04:05;;;;;;;40.22;13.52;;;;;;;-5.18;69.79;93620.44;5083799;28;20096;-74
2024/01/14 07:06:31;;;;;;;34.63;13.63;;;;;;;-5.17;69.38;93617.63;5083751;28;20072;-74
2024/01/14 07:08:56;;;;;;;32.38;12.75;;;;;;;-5.13;69.47;93628.34;5083364;28;20211;-74
2024/01/14 07:11:21;;;;;;;32.13;13.05;;;;;;;-5.06;69.91;93627.25;5083263;28;20086;-74
2024/01/14 07:13:47;;;;;;;37.97;14.23;;;;;;;-4.96;69.82;93628.53;5083434;28;20024;-74
2024/01/14 07:16:12;;;;;;;33.85;13.80;;;;;;;-4.94;70.03;93616.88;5083543;28;20043;-73
2024/01/14 07:18:38;;;;;;;34.55;15.07;;;;;;;-4.89;70.18;93618.81;5082316;28;20027;-74
2024/01/14 07:21:04;;;;;;;30.88;14.07;;;;;;;-4.81;69.79;93622.91;5083718;28;20092;-73
2024/01/14 07:23:29;;;;;;;35.45;14.27;;;;;;;-4.75;69.10;93614.97;5084376;28;20028;-74
2024/01/14 07:25:54;;;;;;;38.08;15.00;;;;;;;-4.72;69.53;93614.56;5083839;28;20017;-74
2024/01/14 07:28:20;;;;;;;40.42;14.52;;;;;;;-4.68;69.07;93623.50;5083957;28;20025;-73
2024/01/14 07:30:46;;;;;;;32.38;12.60;;;;;;;-4.61;69.06;93627.78;5083837;28;20039;-74
2024/01/14 07:33:11;;;;;;;32.42;13.25;;;;;;;-4.54;68.92;93634.47;5083513;28;20306;-73
2024/01/14 07:35:37;;;;;;;30.45;13.27;;;;;;;-4.45;67.78;93647.94;5083279;28;20078;-73
2024/01/14 07:38:03;;;;;;;37.85;14.95;;;;;;;-4.45;68.30;93648.72;5082811;28;20269;-73
2024/01/14 07:40:29;;;;;;;37.17;14.73;;;;;;;-4.42;68.38;93647.47;5083110;28;20074;-73
2024/01/14 07:42:54;;;;;;;41.13;16.08;;;;;;;-4.44;69.06;93639.91;5083130;28;20032;-73
2024/01/14 07:45:20;;;;;;;42.75;15.95;;;;;;;-4.35;68.55;93640.38;5082893;28;20333;-73
2024/01/14 07:47:45;;;;;;;44.97;16.70;;;;;;;-4.35;69.00;93618.75;5083146;28;20096;-73
2024/01/14 07:50:11;;;;;;;43.00;17.10;;;;;;;-4.25;68.58;93629.41;5081807;28;20123;-73
2024/01/14 07:52:36;;;;;;;37.33;16.48;;;;;;;-4.20;68.73;93624.28;5083077;28;20426;-73
2024/01/14 07:55:02;;;;;;;38.83;15.50;;;;;;;-4.07;68.83;93624.06;5082778;28;20221;-73
2024/01/14 07:57:27;;;;;;;36.17;15.75;;;;;;;-4.04;68.45;93625.41;5082702;28;20078;-73
2024/01/14 07:59:52;;;;;;;42.47;16.35;;;;;;;-3.95;67.92;93618.81;5082542;28;20024;-73
2024/01/14 08:02:18;;;;;;;34.92;15.23;;;;;;;-3.94;67.57;93632.66;5082977;28;20099;-73
2024/01/14 08:04:44;;;;;;;34.15;15.35;;;;;;;-3.88;67.85;93622.09;5081525;28;20024;-73
2024/01/14 08:07:10;;;;;;;37.05;17.25;;;;;;;-3.84;67.63;93622.44;5082755;28;20361;-72
2024/01/14 08:09:35;;;;;;;36.25;15.45;;;;;;;-3.87;67.83;93617.69;5082666;28;20036;-74
2024/01/14 08:12:01;;;;;;;34.22;16.08;;;;;;;-3.91;68.44;93609.56;5082698;28;20067;-73
2024/01/14 08:14:26;;;;;;;41.58;16.27;;;;;;;-3.79;68.53;93604.31;5082766;28;20021;-73
2024/01/14 08:16:51;;;;;;;45.60;16.48;;;;;;;-3.64;68.72;93593.41;5082923;28;20032;-73
2024/01/14 08:19:19;;;;;;;38.72;16.10;;;;;;;-3.52;68.80;93601.97;5082903;28;20024;-73
2024/01/14 08:21:44;;;;;;;36.13;15.07;;;;;;;-3.38;68.55;93596.47;5082888;28;20025;-72
2024/01/14 08:24:10;;;;;;;33.83;14.55;;;;;;;-3.24;68.01;93608.22;5082864;28;20074;-73
2024/01/14 08:26:43;;;;;;;43.50;16.52;;;;;;;-3.08;67.30;93610.06;5082771;28;20020;-74
2024/01/14 08:29:12;;;;;;;32.92;14.02;;;;;;;-2.97;66.98;93608.44;5082706;28;20039;-73
2024/01/14 08:31:37;;;;;;;38.95;13.75;;;;;;;-2.83;66.55;93608.91;5082604;28;20028;-73
2024/01/14 08:34:04;;;;;;;38.13;16.17;;;;;;;-2.73;66.05;93618.72;5082743;28;20028;-73
2024/01/14 08:36:29;;;;;;;38.65;16.42;;;;;;;-2.66;65.66;93608.94;5083529;28;20204;-73
2024/01/14 08:38:54;;;;;;;44.97;15.20;;;;;;;-2.59;65.41;93612.16;5082634;28;20031;-73
2024/01/14 08:41:24;;;;;;;34.70;14.98;;;;;;;-2.51;64.54;93618.81;5082763;28;20319;-73
2024/01/14 08:43:55;;;;;;;38.10;13.27;;;;;;;-2.42;62.96;93609.56;5082570;28;20100;-72
2024/01/14 08:46:21;;;;;;;34.65;14.35;;;;;;;-2.37;62.80;93606.22;5082410;28;20051;-72
2024/01/14 08:48:47;;;;;;;36.08;13.90;;;;;;;-2.28;63.06;93610.00;5082956;28;20036;-73
2024/01/14 08:51:13;;;;;;;31.33;13.50;;;;;;;-2.19;62.71;93607.81;5086354;28;20136;-73
2024/01/14 08:53:39;;;;;;;33.88;13.02;;;;;;;-2.12;62.15;93597.97;5085952;28;20040;-73
2024/01/14 08:56:05;;;;;;;37.40;13.57;;;;;;;-2.09;62.03;93600.88;5085865;28;20238;-72
2024/01/14 08:58:36;;;;;;;51.35;14.95;;;;;;;-2.02;61.91;93596.28;5086033;28;20051;-72
2024/01/14 09:01:02;;;;;;;43.28;13.70;;;;;;;-1.91;61.87;93599.81;5086100;28;20301;-73
2024/01/14 09:03:28;;;;;;;34.38;13.85;;;;;;;-1.77;62.03;93596.84;5085710;28;20028;-73
2024/01/14 09:05:54;;;;;;;38.63;14.23;;;;;;;-1.67;62.06;93578.66;5085807;28;20020;-73
2024/01/14 09:08:19;;;;;;;33.67;13.57;;;;;;;-1.64;60.41;93588.66;5085847;28;20330;-73
2024/01/14 09:10:47;;;;;;;38.70;13.60;;;;;;;-1.67;59.80;93586.50;5084487;28;20052;-73
2024/01/14 09:13:12;;;;;;;51.10;14.35;;;;;;;-1.61;60.43;93598.59;5085758;28;20091;-73
2024/01/14 09:15:38;;;;;;;43.13;14.85;;;;;;;-1.50;60.39;93582.03;5085711;28;20200;-73
2024/01/14 09:18:03;;;;;;;34.97;13.52;;;;;;;-1.55;60.63;93597.63;5085545;28;20020;-73
2024/01/14 09:20:29;;;;;;;35.53;14.18;;;;;;;-1.44;59.70;93603.78;5084398;28;20077;-73
2024/01/14 09:22:54;;;;;;;37.28;14.77;;;;;;;-1.34;59.80;93609.13;5085450;28;20303;-73
2024/01/14 09:25:20;;;;;;;30.92;13.98;;;;;;;-1.28;58.98;93600.31;5085385;28;20043;-73
2024/01/14 09:27:45;;;;;;;31.67;13.95;;;;;;;-1.22;58.14;93591.47;5085407;28;20196;-73
2024/01/14 09:30:12;;;;;;;42.30;15.70;;;;;;;-1.22;58.26;93595.94;5084336;28;20020;-73
2024/01/14 09:32:38;;;;;;;42.58;15.68;;;;;;;-1.35;59.16;93594.47;5085444;28;20357;-72
2024/01/14 09:35:04;;;;;;;36.80;15.85;;;;;;;-1.21;59.33;93584.41;5084275;28;20025;-73
2024/01/14 09:37:29;;;;;;;37.60;15.85;;;;;;;-1.12;58.46;93582.94;5085107;28;20036;-73
2024/01/14 09:39:55;;;;;;;33.28;15.48;;;;;;;-1.04;57.19;93573.84;5083954;28;20070;-73
2024/01/14 09:42:33;;;;;;;37.17;16.15;;;;;;;-1.13;58.12;93563.03;5085324;28;20100;-73
2024/01/14 09:45:00;;;;;;;34.50;16.70;;;;;;;-1.08;58.41;93568.34;5085421;28;20219;-72
2024/01/14 09:47:26;;;;;;;38.17;15.88;;;;;;;-0.94;57.46;93562.69;5085233;28;20044;-73
2024/01/14 09:49:54;;;;;;;34.92;14.88;;;;;;;-0.87;57.56;93560.66;5085240;28;20276;-73
2024/01/14 09:52:21;;;;;;;39.17;15.98;;;;;;;-0.72;57.78;93575.69;5084803;28;20081;-73
2024/01/14 09:54:47;;;;;;;42.33;16.45;;;;;;;-0.58;58.04;93568.22;5085139;28;20025;-72
2024/01/14 09:57:17;;;;;;;37.97;15.88;;;;;;;-0.42;57.52;93573.31;5084049;28;20024;-73
2024/01/14 09:59:45;;;;;;;44.03;16.90;;;;;;;-0.22;57.35;93562.19;5084631;28;20021;-73
2024/01/14 10:02:12;;;;;;;34.05;15.07;;;;;;;-0.19;55.65;93560.88;5084905;28;20020;-73
2024/01/14 10:04:41;;;;;;;38.75;15.88;;;;;;;-0.13;55.27;93556.47;5084599;28;20206;-73
2024/01/14 10:07:10;;;;;;;42.15;17.38;;;;;;;0.01;55.53;93539.25;5084744;28;20307;-73
2024/01/14 10:09:39;;;;;;;34.22;16.42;;;;;;;0.14;55.29;93551.91;5084585;28;20020;-72
2024/01/14 10:12:07;;;;;;;34.38;15.75;;;;;;;0.16;54.44;93549.81;5084476;28;20108;-73
2024/01/14 10:14:34;;;;;;;35.85;16.13;;;;;;;0.08;55.45;93539.81;5084664;28;20027;-73
2024/01/14 10:16:59;;;;;;;45.70;17.05;;;;;;;0.25;55.81;93538.84;5084191;28;20024;-73
2024/01/14 10:19:25;;;;;;;39.05;16.48;;;;;;;0.45;55.64;93548.59;5084466;28;20361;-73
2024/01/14 10:21:55;;;;;;;43.10;17.15;;;;;;;0.65;55.21;93540.00;5084555;28;20023;-73
2024/01/14 10:24:22;;;;;;;41.05;16.52;;;;;;;0.73;54.33;93536.88;5084494;28;20059;-72
2024/01/14 10:26:54;;;;;;;33.88;15.95;;;;;;;0.87;54.12;93526.66;5084312;28;20020;-72
2024/01/14 10:29:20;;;;;;;;;;;;;;;0.92;52.17;93529.31;5084553;28;20042;-74
2024/01/14 10:31:46;;;;;;;38.03;14.50;;;;;;;0.88;51.23;93531.66;5084749;28;19919;-73
2024/01/14 10:34:11;;;;;;;41.08;16.02;;;;;;;0.88;50.95;93515.91;5084190;28;20024;-73
2024/01/14 10:36:37;;;;;;;37.53;15.93;;;;;;;0.91;51.81;93510.13;5083963;28;20032;-73
2024/01/14 10:39:04;;;;;;;43.70;17.17;;;;;;;0.85;52.00;93507.78;5084043;28;20091;-73
2024/01/14 10:41:29;;;;;;;50.97;17.27;;;;;;;0.97;52.70;93503.06;5084033;28;20218;-73
2024/01/14 10:43:55;;;;;;;45.58;17.00;;;;;;;1.13;52.78;93485.47;5083943;28;20020;-73
2024/01/14 10:46:22;;;;;;;45.65;19.70;;;;;;;1.30;52.60;93482.56;5083901;28;20360;-74
2024/01/14 10:49:16;;;;;;;45.80;18.08;;;;;;;1.42;52.44;93482.31;5083971;28;20032;-74
2024/01/14 10:51:46;;;;;;;44.95;19.20;;;;;;;1.58;52.06;93486.47;5083704;28;20036;-74
2024/01/14 10:54:21;;;;;;;41.28;17.42;;;;;;;1.68;51.17;93478.59;5083720;28;20097;-73
2024/01/14 10:56:50;;;;;;;51.58;19.45;;;;;;;1.80;50.54;93470.41;5083827;28;20024;-73
2024/01/14 10:59:22;;;;;;;46.05;18.23;;;;;;;1.95;50.18;93464.31;5083902;28;20027;-73
2024/01/14 11:01:55;;;;;;;40.38;17.30;;;;;;;2.09;49.66;93469.78;5083656;28;20047;-73
2024/01/14 11:04:21;;;;;;;44.90;17.55;;;;;;;2.18;49.35;93457.66;5083563;28;20239;-74
2024/01/14 11:06:48;;;;;;;39.25;17.27;;;;;;;2.18;49.38;93461.06;5082454;28;20066;-73
2024/01/14 11:09:14;;;;;;;38.10;17.77;;;;;;;2.32;49.25;93460.47;5083643;28;20016;-73
2024/01/14 11:11:51;;;;;;;39.05;18.63;;;;;;;2.38;48.63;93446.22;5082638;28;20086;-73
2024/01/14 11:14:29;;;;;;;40.83;18.25;;;;;;;2.37;48.68;93455.97;5083591;28;20111;-73